»·PEaware :: N2442P L35-L70

N2442P :: L35-L70

FLIGHT INFORMATION

Flight Status: Arrived
Operator: Privately registered:
United States
More flights under this callsign
Pilot: Ken Q. (14290)
Aircraft: MOONEY M-20K/M ENCORE BRAVO
(M20T)
More flights by this aircraft type
Origin: L35 Big Bear City
United States
Destination: L70 Agua Dulce
United States
More flights between these airports :: More routes between these airports
Route: L35 L70
File this flight plan on PilotEdge
Remarks:
Altitude:
(Current/Filed)
10,500ft
Speed:
(Current/Filed)
180kts
Departed: 15-Nov-18 11:49 AM
Arrived: 15-Nov-18 12:34 PM
Distance/Time
Traveled:
74nm/0:45
Distance/Time
To Go:
Arrived

Flight Plot

Page will automatically refresh every two minutes.

Flight plan parsing failed; only flown route is shown


Map Options




Map Legend


Flown Route
Filed Route
Departure Airport
Arrival Airport
Navaid (VOR, NDB)
Fix

Horizontal Profiles

Position Reports

Time Latitude Longitude Heading Altitude Ground
Speed
15-Nov-18 11:18 34.262650 -116.853864 169 6755ft 0kts
15-Nov-18 11:19 34.262650 -116.853864 169 6755ft 0kts
15-Nov-18 11:20 34.262650 -116.853864 169 6755ft 0kts
15-Nov-18 11:21 34.262650 -116.853864 169 6755ft 0kts
15-Nov-18 11:22 34.262650 -116.853864 169 6755ft 0kts
15-Nov-18 11:23 34.262650 -116.853864 169 6755ft 0kts
15-Nov-18 11:24 34.262650 -116.853864 169 6755ft 0kts
15-Nov-18 11:25 34.262650 -116.853864 169 6755ft 0kts
15-Nov-18 11:26 34.262650 -116.853864 169 6755ft 0kts
15-Nov-18 11:27 34.262650 -116.853864 169 6755ft 0kts
15-Nov-18 11:28 34.262650 -116.853864 169 6755ft 0kts
15-Nov-18 11:29 34.262650 -116.853864 169 6755ft 0kts
15-Nov-18 11:30 34.262650 -116.853864 169 6755ft 0kts
15-Nov-18 11:31 34.262650 -116.853864 169 6755ft 0kts
15-Nov-18 11:32 34.262650 -116.853864 169 6755ft 0kts
15-Nov-18 11:33 34.262650 -116.853864 169 6755ft 0kts
15-Nov-18 11:34 34.262650 -116.853864 169 6755ft 0kts
15-Nov-18 11:35 34.262650 -116.853864 169 6755ft 0kts
15-Nov-18 11:36 34.262650 -116.853864 169 6755ft 0kts
15-Nov-18 11:37 34.262650 -116.853864 169 6755ft 0kts
15-Nov-18 11:38 34.262650 -116.853864 169 6755ft 0kts
15-Nov-18 11:39 34.262649 -116.853864 169 6755ft 0kts
15-Nov-18 11:40 34.262648 -116.853864 169 6755ft 0kts
15-Nov-18 11:41 34.262648 -116.853863 170 6755ft 0kts
15-Nov-18 11:42 34.262647 -116.853863 170 6755ft 0kts
15-Nov-18 11:43 34.262647 -116.853863 170 6755ft 0kts
15-Nov-18 11:44 34.262647 -116.853863 170 6755ft 0kts
15-Nov-18 11:45 34.262617 -116.853856 165 6755ft 3kts
15-Nov-18 11:46 34.263228 -116.854807 272 6755ft 4kts
15-Nov-18 11:47 34.263235 -116.857756 267 6755ft 11kts
15-Nov-18 11:48 34.263194 -116.864105 271 6755ft 0kts
15-Nov-18 11:49 34.263081 -116.865520 85 6755ft 0kts
15-Nov-18 11:50 34.263082 -116.865510 84 6755ft 0kts
15-Nov-18 11:51 34.263363 -116.865630 359 6755ft 0kts
15-Nov-18 11:52 34.263780 -116.862265 87 6755ft 57kts
15-Nov-18 11:53 34.264701 -116.831915 84 7338ft 106kts
15-Nov-18 11:54 34.262128 -116.790770 139 7922ft 147kts
15-Nov-18 11:55 34.244379 -116.827109 277 8538ft 169kts
15-Nov-18 11:56 34.252702 -116.881719 285 9075ft 163kts
15-Nov-18 11:57 34.269614 -116.931658 298 9622ft 159kts
15-Nov-18 11:58 34.288065 -116.980669 297 10160ft 158kts
15-Nov-18 11:59 34.306563 -117.030218 297 10459ft 170kts
15-Nov-18 12:00 34.327423 -117.084805 297 10422ft 182kts
15-Nov-18 12:01 34.348683 -117.140325 297 10408ft 182kts
15-Nov-18 12:02 34.370066 -117.196142 297 10398ft 182kts
15-Nov-18 12:03 34.391356 -117.251758 297 10375ft 183kts
15-Nov-18 12:04 34.412701 -117.307487 297 10379ft 182kts
15-Nov-18 12:05 34.434207 -117.363604 297 10387ft 183kts
15-Nov-18 12:06 34.455827 -117.420020 297 10394ft 183kts
15-Nov-18 12:07 34.477391 -117.476587 294 10393ft 184kts
15-Nov-18 12:08 34.490195 -117.537417 285 10390ft 185kts
15-Nov-18 12:09 34.499903 -117.587909 285 10385ft 184kts
15-Nov-18 12:10 34.513611 -117.659179 285 10381ft 185kts
15-Nov-18 12:11 34.525347 -117.720210 285 10384ft 184kts
15-Nov-18 12:12 34.534898 -117.770065 285 10293ft 177kts
15-Nov-18 12:13 34.544331 -117.820926 285 10116ft 138kts
15-Nov-18 12:14 34.554576 -117.875700 285 9549ft 145kts
15-Nov-18 12:15 34.561615 -117.912061 285 9175ft 147kts
15-Nov-18 12:16 34.571060 -117.959997 285 8666ft 144kts
15-Nov-18 12:17 34.580361 -118.007128 285 8165ft 143kts
15-Nov-18 12:18 34.589745 -118.054021 285 7661ft 140kts
15-Nov-18 12:19 34.598842 -118.099209 285 7159ft 136kts
15-Nov-18 12:20 34.600209 -118.141665 239 6898ft 120kts
15-Nov-18 12:21 34.579153 -118.174046 222 6911ft 126kts
15-Nov-18 12:22 34.552787 -118.203445 213 6749ft 136kts
15-Nov-18 12:23 34.535704 -118.241173 260 6241ft 118kts
15-Nov-18 12:24 34.526665 -118.277388 248 5663ft 116kts
15-Nov-18 12:25 34.508563 -118.310119 222 4978ft 118kts
15-Nov-18 12:26 34.483385 -118.334806 207 4274ft 115kts
15-Nov-18 12:27 34.493554 -118.336851 36 3792ft 96kts
15-Nov-18 12:28 34.512562 -118.315467 36 3454ft 81kts
15-Nov-18 12:29 34.518782 -118.300696 196 3410ft 108kts
15-Nov-18 12:30 34.498029 -118.325198 227 3964ft 97kts
15-Nov-18 12:31 34.470463 -118.357334 227 3759ft 154kts
15-Nov-18 12:32 34.490456 -118.371600 47 3759ft 135kts
15-Nov-18 12:33 34.510468 -118.331655 64 3667ft 142kts
15-Nov-18 12:34 34.523772 -118.288256 74 3674ft 135kts
15-Nov-18 12:35 34.512576 -118.286208 266 3393ft 146kts
15-Nov-18 12:36 34.501271 -118.316698 232 2605ft 48kts
15-Nov-18 12:37 34.500519 -118.318818 50 2605ft 12kts
15-Nov-18 12:38 34.502272 -118.316001 52 2605ft 13kts
15-Nov-18 12:39 34.503286 -118.314620 352 2605ft 0kts
15-Nov-18 12:40 34.503286 -118.314620 352 2605ft 0kts
15-Nov-18 12:41 34.503286 -118.314620 352 2605ft 0kts
15-Nov-18 12:42 34.503286 -118.314620 352 2605ft 0kts
15-Nov-18 12:43 34.503286 -118.314620 352 2605ft 0kts

Navigation Log

Ident Type
Flight plan parsing failed, navigation log unavailable